Time;durP1;ratioP1;P1;durP2;ratioP2;P2;SDS_P1;SDS_P2;PMS_P1;PMS_P2;Temp;Humidity;BMP_temperature;BMP_pressure;BME280_temperature;BME280_humidity;BME280_pressure;Samples;Min_cycle;Max_cycle;Signal;HPM_P1;HPM_P2
2021/04/15 00:00:23;;;;;;;12.40;7.63;;;0.20;99.90;;;;;;5010018;28;20990;-86
2021/04/15 00:02:49;;;;;;;10.40;7.23;;;;;;;;;;5013733;28;20456;-88
2021/04/15 00:05:23;;;;;;;9.60;7.70;;;0.10;99.90;;;;;;5012873;28;20834;-86
2021/04/15 00:07:50;;;;;;;10.90;7.63;;;;;;;;;;5010971;28;20506;-86
2021/04/15 00:10:17;;;;;;;11.47;8.10;;;;;;;;;;5011034;28;20452;-86
2021/04/15 00:12:43;;;;;;;11.30;7.90;;;;;;;;;;5014068;28;20452;-87
2021/04/15 00:15:13;;;;;;;14.23;9.27;;;0.50;99.90;;;;;;5013945;28;20535;-85
2021/04/15 00:17:39;;;;;;;9.67;7.43;;;;;;;;;;5013774;28;20460;-89
2021/04/15 00:20:08;;;;;;;11.40;7.57;;;-0.10;99.90;;;;;;5012625;28;20449;-86
2021/04/15 00:22:36;;;;;;;13.17;7.87;;;-0.20;99.90;;;;;;5013710;28;20928;-87
2021/04/15 00:25:02;;;;;;;10.43;7.70;;;;;;;;;;5013779;28;20500;-90
2021/04/15 00:27:29;;;;;;;11.33;8.27;;;-0.10;99.90;;;;;;5008165;28;20504;-91
2021/04/15 00:29:55;;;;;;;9.73;7.70;;;;;;;;;;5006955;28;20887;-88
2021/04/15 00:32:22;;;;;;;15.70;9.20;;;;;;;;;;5013801;28;20448;-85
2021/04/15 00:34:49;;;;;;;16.90;8.93;;;;;;;;;;5008223;28;20517;-88
2021/04/15 00:37:15;;;;;;;18.40;10.00;;;;;;;;;;5008692;28;20452;-88
2021/04/15 00:39:43;;;;;;;12.57;8.83;;;-0.30;99.90;;;;;;5010486;28;20444;-86
2021/04/15 00:42:10;;;;;;;9.83;8.50;;;-0.30;99.90;;;;;;5010476;28;20448;-86
2021/04/15 00:44:37;;;;;;;10.83;8.20;;;;;;;;;;5009141;28;20492;-86
2021/04/15 00:47:06;;;;;;;10.30;8.30;;;-0.40;99.90;;;;;;5010461;28;20448;-87
2021/04/15 00:49:38;;;;;;;10.70;8.50;;;-0.70;99.90;;;;;;5009197;28;20813;-89
2021/04/15 00:52:07;;;;;;;18.33;10.10;;;-0.40;99.90;;;;;;5010842;28;20510;-87
2021/04/15 00:54:38;;;;;;;13.47;9.67;;;-0.40;99.90;;;;;;5013166;28;20958;-88
2021/04/15 00:57:12;;;;;;;13.30;10.13;;;-0.40;99.90;;;;;;5012494;28;20957;-85
2021/04/15 00:59:39;;;;;;;13.70;9.30;;;-0.40;99.90;;;;;;4993674;28;20876;-90
2021/04/15 01:02:06;;;;;;;14.30;9.60;;;;;;;;;;4993569;28;20457;-87
2021/04/15 01:04:32;;;;;;;15.63;10.60;;;-0.20;99.90;;;;;;4992473;28;20497;-89
2021/04/15 01:06:59;;;;;;;13.80;10.03;;;;;;;;;;4993831;28;20468;-87
2021/04/15 01:09:26;;;;;;;12.33;9.40;;;;;;;;;;4990681;28;20458;-87
2021/04/15 01:12:26;;;;;;;12.80;9.57;;;-0.40;99.90;;;;;;4993538;28;20465;-90
2021/04/15 01:15:02;;;;;;;12.30;9.30;;;-0.60;99.90;;;;;;4951294;28;20458;-90
2021/04/15 01:17:34;;;;;;;14.60;10.73;;;-0.60;99.90;;;;;;4991162;28;20811;-87
2021/04/15 01:20:37;;;;;;;14.10;10.47;;;-1.20;99.90;;;;;;4992376;28;20503;-89
2021/04/15 01:23:12;;;;;;;14.57;9.50;;;-0.50;99.90;;;;;;4993309;28;20467;-88
2021/04/15 01:26:01;;;;;;;13.47;9.20;;;-0.70;99.90;;;;;;4993438;28;20455;-88
2021/04/15 01:28:43;;;;;;;14.27;9.37;;;-0.70;99.90;;;;;;4990336;28;20492;-88
2021/04/15 01:31:16;;;;;;;12.40;9.93;;;-0.70;99.90;;;;;;4990556;28;20461;-88
2021/04/15 01:33:53;;;;;;;11.53;9.20;;;-0.70;99.90;;;;;;4992355;28;20454;-88
2021/04/15 01:36:26;;;;;;;13.57;9.93;;;-0.70;99.90;;;;;;4993310;28;20818;-88
2021/04/15 01:38:59;;;;;;;15.87;9.90;;;-1.10;99.90;;;;;;4988428;28;20452;-88
2021/04/15 01:41:36;;;;;;;16.23;11.00;;;-0.70;99.90;;;;;;4987823;28;20459;-86
2021/04/15 01:44:09;;;;;;;14.50;9.97;;;-0.80;99.90;;;;;;4993012;28;20550;-88
2021/04/15 01:46:38;;;;;;;13.87;9.70;;;0.40;99.90;;;;;;4986329;28;20453;-88
2021/04/15 01:49:09;;;;;;;13.00;9.77;;;-0.70;99.90;;;;;;4991822;28;20455;-86
2021/04/15 01:51:41;;;;;;;14.93;11.17;;;-0.80;99.90;;;;;;4988985;28;20473;-87
2021/04/15 01:54:12;;;;;;;15.13;9.93;;;-0.80;99.90;;;;;;4990519;28;20461;-87
2021/04/15 01:56:45;;;;;;;15.90;10.40;;;-1.00;99.90;;;;;;4990320;28;20449;-88
2021/04/15 01:59:17;;;;;;;16.07;10.23;;;-0.90;99.90;;;;;;5002860;28;20507;-88
2021/04/15 02:01:47;;;;;;;15.00;11.20;;;-0.90;99.90;;;;;;5008719;28;20496;-87
2021/04/15 02:04:17;;;;;;;14.10;9.80;;;-0.90;99.90;;;;;;5011779;28;20496;-88
2021/04/15 02:06:48;;;;;;;14.50;10.50;;;-0.90;99.90;;;;;;5017781;28;20978;-90
2021/04/15 02:09:17;;;;;;;14.57;10.60;;;-0.90;99.90;;;;;;5015165;28;20840;-90
2021/04/15 02:11:48;;;;;;;13.50;9.50;;;-1.10;99.90;;;;;;5017194;28;20455;-89
2021/04/15 02:14:18;;;;;;;14.40;9.80;;;-0.30;99.90;;;;;;5014426;28;20451;-87
2021/04/15 02:16:48;;;;;;;13.70;9.17;;;-1.00;99.90;;;;;;5018237;28;20481;-88
2021/04/15 02:19:19;;;;;;;19.63;11.00;;;-1.00;99.90;;;;;;5017706;28;20447;-89
2021/04/15 02:21:53;;;;;;;17.40;9.80;;;-0.90;99.90;;;;;;5020805;28;20856;-89
2021/04/15 02:24:30;;;;;;;14.37;10.20;;;-1.00;99.90;;;;;;5015396;28;20508;-88
2021/04/15 02:27:02;;;;;;;14.07;10.17;;;-1.00;99.90;;;;;;5016626;28;20473;-89
2021/04/15 02:29:34;;;;;;;16.37;9.70;;;-0.90;99.90;;;;;;5014849;28;20443;-88
2021/04/15 02:32:06;;;;;;;13.57;9.57;;;-1.10;99.90;;;;;;5018381;28;20455;-88
2021/04/15 02:34:36;;;;;;;13.87;9.47;;;-1.00;99.90;;;;;;4982069;28;20934;-87
2021/04/15 02:37:08;;;;;;;12.53;8.37;;;-1.00;99.90;;;;;;5011421;28;20452;-88
2021/04/15 02:39:36;;;;;;;12.77;9.40;;;-1.20;99.90;;;;;;5010367;28;20830;-90
2021/04/15 02:42:05;;;;;;;12.47;7.40;;;-0.30;99.90;;;;;;5011023;28;20615;-90
2021/04/15 02:44:45;;;;;;;10.80;7.90;;;-1.00;99.90;;;;;;5016810;28;20494;-90
2021/04/15 02:47:15;;;;;;;12.10;7.90;;;-1.50;99.90;;;;;;5012764;28;21212;-88
2021/04/15 02:49:41;;;;;;;12.57;7.77;;;-0.90;99.90;;;;;;5015669;28;20450;-87
2021/04/15 02:52:14;;;;;;;11.77;7.97;;;-0.90;99.90;;;;;;5011561;28;20799;-88
2021/04/15 02:54:44;;;;;;;9.83;7.00;;;-1.00;99.90;;;;;;5014418;28;20446;-89
2021/04/15 02:57:15;;;;;;;9.90;6.93;;;-1.10;99.90;;;;;;5016585;28;20799;-89
2021/04/15 02:59:47;;;;;;;11.30;7.50;;;-0.50;99.90;;;;;;5016532;28;20455;-89
2021/04/15 03:02:19;;;;;;;10.80;7.43;;;-1.90;99.90;;;;;;5012837;28;20456;-89
2021/04/15 03:04:50;;;;;;;9.90;7.70;;;-1.20;99.90;;;;;;5015598;28;20490;-88
2021/04/15 03:07:19;;;;;;;7.07;5.97;;;-1.30;99.90;;;;;;5016793;28;20449;-91
2021/04/15 03:09:47;;;;;;;9.13;6.83;;;-1.10;99.90;;;;;;5013554;28;20465;-88
2021/04/15 03:12:19;;;;;;;10.30;6.63;;;-1.20;99.90;;;;;;5016568;28;20469;-89
2021/04/15 03:14:51;;;;;;;8.00;6.00;;;-1.20;99.90;;;;;;5016344;28;20462;-88
2021/04/15 03:17:19;;;;;;;8.43;6.63;;;-1.30;99.90;;;;;;5016158;28;20888;-90
2021/04/15 03:19:50;;;;;;;8.03;6.43;;;-1.70;99.90;;;;;;5015139;28;20461;-88
2021/04/15 03:22:20;;;;;;;11.10;6.83;;;-1.40;99.90;;;;;;5016223;28;20447;-91
2021/04/15 03:24:49;;;;;;;10.33;7.03;;;-1.20;99.90;;;;;;5016217;28;20504;-88
2021/04/15 03:27:22;;;;;;;9.40;6.57;;;-1.30;99.90;;;;;;5010637;28;21033;-88
2021/04/15 03:29:56;;;;;;;9.90;7.13;;;-1.40;99.90;;;;;;5015972;28;20449;-89
2021/04/15 03:32:27;;;;;;;9.17;5.80;;;-1.40;99.90;;;;;;5012902;28;20498;-89
2021/04/15 03:35:01;;;;;;;8.63;5.70;;;-1.40;99.90;;;;;;5015065;28;20463;-91
2021/04/15 03:37:34;;;;;;;9.50;6.10;;;-1.40;99.90;;;;;;5016248;28;20478;-88
2021/04/15 03:40:09;;;;;;;7.80;6.20;;;-1.40;99.90;;;;;;5015971;28;20791;-92
2021/04/15 03:42:44;;;;;;;10.97;5.97;;;-1.40;99.90;;;;;;5016119;28;20506;-91
2021/04/15 03:45:21;;;;;;;16.40;7.10;;;-1.40;99.90;;;;;;5013295;28;20530;-89
2021/04/15 03:48:02;;;;;;;9.73;5.53;;;-1.40;99.90;;;;;;5014735;28;20469;-91
2021/04/15 03:50:49;;;;;;;10.40;6.83;;;-1.40;99.90;;;;;;5015821;28;20455;-91
2021/04/15 03:53:26;;;;;;;12.60;7.03;;;-1.00;99.90;;;;;;5015805;28;20438;-88
2021/04/15 03:55:57;;;;;;;12.40;6.87;;;-1.60;99.90;;;;;;5014210;28;20443;-88
2021/04/15 03:58:27;;;;;;;11.97;6.80;;;-1.50;99.90;;;;;;5015660;28;20967;-87
2021/04/15 04:01:05;;;;;;;7.27;6.33;;;-1.40;99.90;;;;;;5015644;28;20452;-88
2021/04/15 04:03:39;;;;;;;11.07;8.00;;;-1.40;99.90;;;;;;5014081;28;20494;-89
2021/04/15 04:06:12;;;;;;;15.20;6.70;;;-1.40;99.90;;;;;;5014443;28;20502;-87
2021/04/15 04:08:43;;;;;;;9.90;6.93;;;-1.40;99.90;;;;;;5010698;28;21017;-88
2021/04/15 04:11:16;;;;;;;14.10;7.40;;;-1.40;99.90;;;;;;5014653;28;20460;-87
2021/04/15 04:13:48;;;;;;;11.63;8.23;;;-1.40;99.90;;;;;;5012941;28;20445;-89
2021/04/15 04:16:35;;;;;;;9.07;7.47;;;-1.40;99.90;;;;;;5009874;28;21067;-92
2021/04/15 04:19:06;;;;;;;8.40;6.00;;;-1.50;99.90;;;;;;5015438;28;20939;-89
2021/04/15 04:21:55;;;;;;;7.37;5.60;;;-1.70;99.90;;;;;;5015771;28;20452;-90
2021/04/15 04:24:30;;;;;;;12.03;6.53;;;-1.50;99.90;;;;;;5015218;28;20482;-91
2021/04/15 04:27:00;;;;;;;11.00;8.30;;;-1.80;99.90;;;;;;5015543;28;20541;-91
2021/04/15 04:29:35;;;;;;;12.17;6.77;;;-1.50;99.90;;;;;;5014892;28;20555;-88
2021/04/15 04:32:12;;;;;;;11.10;7.20;;;-1.50;99.90;;;;;;5015529;28;20437;-91
2021/04/15 04:34:39;;;;;;;8.50;6.87;;;-1.40;99.90;;;;;;5014585;28;20448;-91
2021/04/15 04:37:09;;;;;;;10.20;7.23;;;-1.50;99.90;;;;;;5009817;28;20929;-89
2021/04/15 04:39:37;;;;;;;10.13;6.50;;;;;;;;;;5015204;28;20446;-89
2021/04/15 04:42:12;;;;;;;8.60;6.53;;;-1.60;99.90;;;;;;5015108;28;20536;-88
2021/04/15 04:44:50;;;;;;;11.73;8.27;;;-1.50;99.90;;;;;;5011816;28;20488;-89
2021/04/15 04:47:27;;;;;;;10.70;8.20;;;-1.50;99.90;;;;;;5015114;28;20454;-90
2021/04/15 04:49:59;;;;;;;9.77;6.90;;;-1.80;99.90;;;;;;5009474;28;20461;-89
2021/04/15 04:52:28;;;;;;;9.10;6.77;;;-1.40;99.90;;;;;;5014046;28;20452;-90
2021/04/15 04:54:56;;;;;;;9.97;6.80;;;-1.40;99.90;;;;;;5012374;28;20464;-87
2021/04/15 04:57:32;;;;;;;9.23;6.93;;;-1.40;99.90;;;;;;5013587;28;20842;-88
2021/04/15 05:00:02;;;;;;;9.57;6.90;;;-1.50;99.90;;;;;;5012547;28;20450;-89
2021/04/15 05:02:30;;;;;;;14.37;7.30;;;-1.40;99.90;;;;;;5011871;28;20449;-90
2021/04/15 05:05:01;;;;;;;10.87;6.97;;;-1.50;99.90;;;;;;5010343;28;20518;-89
2021/04/15 05:07:31;;;;;;;10.30;6.90;;;-1.20;99.90;;;;;;5012562;28;20460;-89
2021/04/15 05:09:58;;;;;;;14.50;6.60;;;;;;;;;;5009189;28;20448;-90
2021/04/15 05:12:28;;;;;;;9.23;7.17;;;-1.30;99.90;;;;;;5011610;28;20844;-89
2021/04/15 05:14:56;;;;;;;10.63;7.77;;;-1.20;99.90;;;;;;5012409;28;20464;-89
2021/04/15 05:17:30;;;;;;;7.83;6.33;;;-1.20;99.90;;;;;;5010669;28;20451;-88
2021/04/15 05:19:59;;;;;;;9.07;6.53;;;-0.80;99.90;;;;;;5013341;28;20436;-89
2021/04/15 05:22:30;;;;;;;9.57;6.87;;;-1.20;99.90;;;;;;5013977;28;20447;-90
2021/04/15 05:25:01;;;;;;;11.67;6.13;;;-1.00;99.90;;;;;;5013679;28;20491;-91
2021/04/15 05:27:31;;;;;;;7.67;6.33;;;-0.80;99.90;;;;;;5016123;28;20499;-92
2021/04/15 05:30:17;;;;;;;8.00;6.40;;;-0.80;99.90;;;;;;5016964;28;20464;-91
2021/04/15 05:32:47;;;;;;;7.00;6.20;;;-1.30;99.90;;;;;;5011611;28;20935;-91
2021/04/15 05:35:17;;;;;;;6.40;5.57;;;-0.30;99.90;;;;;;5014806;28;20476;-89
2021/04/15 05:37:44;;;;;;;8.00;5.03;;;-0.20;99.90;;;;;;5008250;28;20451;-90
2021/04/15 05:40:12;;;;;;;6.50;4.53;;;0.20;99.90;;;;;;5014112;28;20852;-87
2021/04/15 05:42:43;;;;;;;5.50;4.93;;;0.60;99.90;;;;;;5013441;28;20456;-90
2021/04/15 05:45:16;;;;;;;5.50;4.93;;;0.90;99.90;;;;;;5016575;28;20503;-90
2021/04/15 05:47:53;;;;;;;7.30;4.70;;;0.80;99.90;;;;;;5016712;28;20455;-88
2021/04/15 05:50:24;;;;;;;4.60;3.73;;;1.10;99.90;;;;;;5015562;28;20506;-90
2021/04/15 05:52:58;;;;;;;5.67;4.10;;;1.00;99.90;;;;;;5017078;28;20451;-92
2021/04/15 05:55:29;;;;;;;5.00;4.17;;;1.00;99.90;;;;;;5015011;28;20458;-90
2021/04/15 05:58:02;;;;;;;6.90;5.20;;;1.90;99.90;;;;;;5005448;28;20535;-91
2021/04/15 06:00:35;;;;;;;5.37;4.43;;;1.50;99.90;;;;;;5014958;28;20500;-90
2021/04/15 06:03:14;;;;;;;6.13;4.90;;;1.10;99.90;;;;;;5014065;28;20448;-89
2021/04/15 06:05:52;;;;;;;9.20;4.83;;;1.30;99.90;;;;;;5013939;28;20499;-89
2021/04/15 06:08:18;;;;;;;6.37;4.50;;;1.40;99.90;;;;;;5013951;28;20479;-87
2021/04/15 06:10:45;;;;;;;5.93;4.97;;;1.50;99.90;;;;;;5013227;28;21006;-89
2021/04/15 06:13:19;;;;;;;7.10;4.30;;;1.50;99.90;;;;;;5013922;28;20573;-88
2021/04/15 06:15:56;;;;;;;7.17;4.97;;;1.80;99.90;;;;;;5014274;28;20460;-88
2021/04/15 06:18:31;;;;;;;4.73;3.90;;;1.90;99.90;;;;;;5012958;28;20440;-89
2021/04/15 06:21:01;;;;;;;11.90;4.60;;;2.20;99.90;;;;;;5007093;28;20443;-88
2021/04/15 06:23:32;;;;;;;9.00;4.23;;;2.20;99.90;;;;;;5013730;28;20510;-86
2021/04/15 06:25:59;;;;;;;4.73;4.23;;;2.80;99.90;;;;;;5014172;28;20475;-86
2021/04/15 06:28:29;;;;;;;6.83;3.93;;;3.90;99.90;;;;;;5014030;28;21010;-87
2021/04/15 06:31:21;;;;;;;3.83;3.43;;;2.50;99.90;;;;;;5013060;28;20444;-87
2021/04/15 06:33:48;;;;;;;4.00;3.60;;;3.30;99.90;;;;;;5012007;28;20452;-86
2021/04/15 06:36:27;;;;;;;4.67;4.27;;;3.50;99.90;;;;;;5013169;28;20444;-87
2021/04/15 06:38:57;;;;;;;4.90;4.40;;;3.50;99.90;;;;;;5012778;28;20452;-85
2021/04/15 06:41:44;;;;;;;4.20;3.80;;;3.40;99.90;;;;;;5012638;28;20445;-88
2021/04/15 06:44:45;;;;;;;4.30;3.80;;;3.70;99.90;;;;;;5012431;28;20491;-87
2021/04/15 06:47:39;;;;;;;5.50;3.70;;;4.30;99.90;;;;;;5012666;28;20448;-87
2021/04/15 06:50:26;;;;;;;4.53;3.70;;;4.40;99.90;;;;;;5007123;28;20455;-86
2021/04/15 06:53:15;;;;;;;4.97;4.03;;;4.50;99.90;;;;;;5016437;28;20495;-87
2021/04/15 06:55:56;;;;;;;6.63;3.73;;;5.20;99.90;;;;;;5016189;28;20468;-86
2021/04/15 06:58:44;;;;;;;3.60;3.30;;;6.00;99.90;;;;;;5016265;28;20448;-90
2021/04/15 07:01:35;;;;;;;5.47;3.93;;;5.90;99.90;;;;;;5017187;28;20444;-89
2021/04/15 07:04:08;;;;;;;8.17;3.93;;;5.40;99.90;;;;;;5009652;28;20492;-87
2021/04/15 07:06:50;;;;;;;5.83;4.30;;;5.80;99.90;;;;;;5012934;28;20449;-92
2021/04/15 07:09:51;;;;;;;5.73;4.20;;;6.10;99.90;;;;;;5016210;28;20974;-84
2021/04/15 07:13:11;;;;;;;5.53;4.30;;;6.40;99.90;;;;;;5016698;28;20450;-87
2021/04/15 07:15:49;;;;;;;7.67;4.00;;;6.50;99.90;;;;;;4987528;28;20449;-87
2021/04/15 07:18:42;;;;;;;4.93;3.47;;;6.50;99.90;;;;;;5014754;28;20827;-87
2021/04/15 07:21:30;;;;;;;4.93;3.50;;;7.10;99.90;;;;;;5012933;28;20452;-88
2021/04/15 07:24:37;;;;;;;4.77;4.37;;;7.30;99.90;;;;;;5014223;28;20522;-90
2021/04/15 07:27:38;;;;;;;6.20;4.10;;;7.50;99.90;;;;;;5014905;28;20492;-89
2021/04/15 07:30:39;;;;;;;5.93;3.93;;;7.10;99.90;;;;;;4961754;28;20456;-86
2021/04/15 07:33:30;;;;;;;4.40;3.90;;;7.00;99.90;;;;;;5015626;28;20479;-84
2021/04/15 07:36:28;;;;;;;5.40;4.20;;;7.10;99.90;;;;;;5015335;28;20456;-85
2021/04/15 07:39:24;;;;;;;5.80;4.23;;;7.10;99.90;;;;;;4983331;28;20455;-84
2021/04/15 07:42:05;;;;;;;4.40;4.00;;;7.60;99.90;;;;;;5013447;28;20466;-89
2021/04/15 07:44:36;;;;;;;7.73;4.60;;;7.00;99.90;;;;;;5015739;28;21046;-87
2021/04/15 07:47:31;;;;;;;4.83;4.00;;;7.30;96.80;;;;;;5015824;28;20448;-86
2021/04/15 07:50:11;;;;;;;5.07;4.57;;;7.80;99.90;;;;;;5014578;28;20451;-87
2021/04/15 07:53:22;;;;;;;7.33;4.20;;;7.90;99.90;;;;;;5015407;28;20440;-87
2021/04/15 07:56:25;;;;;;;9.80;4.50;;;7.90;96.20;;;;;;4973534;28;20580;-87
2021/04/15 07:59:20;;;;;;;7.37;4.43;;;8.50;99.90;;;;;;4973183;28;20493;-86
2021/04/15 08:02:08;;;;;;;4.00;3.70;;;9.70;99.90;;;;;;4967123;28;20469;-86
2021/04/15 08:05:07;;;;;;;6.03;4.10;;;9.80;93.10;;;;;;4993203;28;20555;-87
2021/04/15 08:07:56;;;;;;;6.40;4.77;;;9.60;93.10;;;;;;5008022;28;20452;-87
2021/04/15 08:10:59;;;;;;;4.27;3.87;;;9.80;99.70;;;;;;5001795;28;20456;-86
2021/04/15 08:14:07;;;;;;;6.93;4.77;;;9.70;92.30;;;;;;5012507;28;20467;-86
2021/04/15 08:16:50;;;;;;;4.93;4.20;;;8.10;99.90;;;;;;4999305;28;20457;-87
2021/04/15 08:19:43;;;;;;;5.30;4.80;;;8.30;93.30;;;;;;5003769;28;20452;-83
2021/04/15 08:22:21;;;;;;;4.77;3.93;;;8.80;91.70;;;;;;4994823;28;20493;-85
2021/04/15 08:24:59;;;;;;;4.90;4.10;;;8.20;93.90;;;;;;4995165;28;20869;-86
2021/04/15 08:28:01;;;;;;;5.40;4.57;;;9.00;93.10;;;;;;4996319;28;20531;-86
2021/04/15 08:30:41;;;;;;;6.23;4.67;;;9.10;90.90;;;;;;4971008;28;20555;-86
2021/04/15 08:33:32;;;;;;;5.87;4.77;;;8.60;92.00;;;;;;4995636;28;20449;-87
2021/04/15 08:36:31;;;;;;;5.27;4.00;;;10.00;90.30;;;;;;4985536;28;20458;-89
2021/04/15 08:39:10;;;;;;;5.70;5.00;;;9.90;97.40;;;;;;4991646;28;20457;-89
2021/04/15 08:41:47;;;;;;;6.53;4.70;;;10.30;87.80;;;;;;4995273;28;20453;-88
2021/04/15 08:44:28;;;;;;;4.83;4.33;;;10.10;88.80;;;;;;4992492;28;20481;-88
2021/04/15 08:47:05;;;;;;;5.00;4.50;;;11.40;88.80;;;;;;4995165;28;20571;-89
2021/04/15 08:49:39;;;;;;;5.13;4.63;;;11.70;85.40;;;;;;4994220;28;20456;-86
2021/04/15 08:52:35;;;;;;;8.00;4.30;;;11.50;83.80;;;;;;4991958;28;20450;-91
2021/04/15 08:55:12;;;;;;;4.17;3.63;;;12.20;84.60;;;;;;4996889;28;20452;-89
2021/04/15 08:57:49;;;;;;;4.27;3.87;;;11.60;95.50;;;;;;5015305;28;20459;-89
2021/04/15 09:00:23;;;;;;;5.63;4.80;;;11.70;81.80;;;;;;5014748;28;20502;-89
2021/04/15 09:03:03;;;;;;;4.43;4.00;;;11.30;78.90;;;;;;5013675;28;20451;-89
2021/04/15 09:05:37;;;;;;;7.90;4.63;;;12.20;94.10;;;;;;5013173;28;20496;-89
2021/04/15 09:08:10;;;;;;;5.17;4.67;;;12.10;78.20;;;;;;5014394;28;20479;-89
2021/04/15 09:10:45;;;;;;;9.83;4.50;;;12.30;80.50;;;;;;5015450;28;20452;-89
2021/04/15 09:13:25;;;;;;;5.00;4.07;;;12.50;92.30;;;;;;5014822;28;20448;-89
2021/04/15 09:16:16;;;;;;;6.43;4.00;;;12.50;76.50;;;;;;5013118;28;20855;-86
2021/04/15 09:18:53;;;;;;;4.47;4.03;;;11.80;85.00;;;;;;5013199;28;20510;-89
2021/04/15 09:21:35;;;;;;;4.90;4.10;;;11.60;84.20;;;;;;5010238;28;20444;-90
2021/04/15 09:24:14;;;;;;;4.00;3.70;;;12.00;83.80;;;;;;5013766;28;20503;-87
2021/04/15 09:27:15;;;;;;;4.30;3.90;;;12.10;87.90;;;;;;5013502;28;20511;-88
2021/04/15 09:29:51;;;;;;;4.17;3.77;;;12.00;85.90;;;;;;5013811;28;20451;-89
2021/04/15 09:32:20;;;;;;;6.90;3.50;;;11.50;71.50;;;;;;5013337;28;20456;-89
2021/04/15 09:35:14;;;;;;;5.60;3.80;;;11.90;68.90;;;;;;5012156;28;20448;-85
2021/04/15 09:38:13;;;;;;;5.77;3.10;;;12.90;94.10;;;;;;5001061;28;20461;-88
2021/04/15 09:40:52;;;;;;;6.03;3.63;;;12.30;69.00;;;;;;4987875;28;20448;-88
2021/04/15 09:43:27;;;;;;;4.03;2.80;;;12.50;74.20;;;;;;5014338;28;20460;-88
2021/04/15 09:46:08;;;;;;;7.77;4.20;;;11.80;69.50;;;;;;5014605;28;20487;-87
2021/04/15 09:48:59;;;;;;;6.50;3.50;;;11.90;99.90;;;;;;5011238;28;20456;-88
2021/04/15 09:51:59;;;;;;;3.93;3.53;;;12.70;68.70;;;;;;5014707;28;20511;-89
2021/04/15 09:54:39;;;;;;;8.80;3.47;;;13.50;68.40;;;;;;5004461;28;20448;-89
2021/04/15 09:57:21;;;;;;;4.73;3.10;;;12.80;66.10;;;;;;4990909;28;20460;-90
2021/04/15 09:59:58;;;;;;;4.90;4.10;;;11.90;68.80;;;;;;5013785;28;20440;-89
2021/04/15 10:02:31;;;;;;;3.60;2.97;;;10.90;70.50;;;;;;5014376;28;20951;-88
2021/04/15 10:05:03;;;;;;;3.10;2.80;;;11.60;74.20;;;;;;5024320;28;20520;-88
2021/04/15 10:07:35;;;;;;;6.70;3.40;;;12.50;69.60;;;;;;5052965;28;20929;-88
2021/04/15 10:10:26;;;;;;;2.50;2.30;;;12.70;62.50;;;;;;5050343;28;20458;-88
2021/04/15 10:13:03;;;;;;;5.07;2.70;;;12.00;92.60;;;;;;5053018;28;20458;-87
2021/04/15 10:15:40;;;;;;;2.87;2.67;;;11.40;65.00;;;;;;5052457;28;20461;-90
2021/04/15 10:18:15;;;;;;;2.40;2.17;;;12.50;67.40;;;;;;5050947;28;20504;-87
2021/04/15 10:21:20;;;;;;;4.23;3.50;;;13.40;65.50;;;;;;5052107;28;20798;-88
2021/04/15 10:24:16;;;;;;;2.47;2.10;;;13.20;80.00;;;;;;5052297;28;20450;-88
2021/04/15 10:27:34;;;;;;;5.13;2.40;;;12.40;61.10;;;;;;5054105;28;20458;-88
2021/04/15 10:30:33;;;;;;;2.47;1.87;;;12.50;60.40;;;;;;5056270;28;20454;-88
2021/04/15 10:33:41;;;;;;;2.73;2.20;;;12.80;57.40;;;;;;5056140;28;20455;-88
2021/04/15 10:36:45;;;;;;;4.20;2.90;;;12.70;64.70;;;;;;5018483;28;20501;-90
2021/04/15 10:40:02;;;;;;;3.57;2.50;;;13.60;63.80;;;;;;5036951;28;20431;-89
2021/04/15 10:43:10;;;;;;;4.37;3.00;;;12.30;62.40;;;;;;5033109;28;20443;-89
2021/04/15 10:46:16;;;;;;;2.90;2.53;;;11.30;93.00;;;;;;5036363;28;20529;-88
2021/04/15 10:48:54;;;;;;;4.00;3.00;;;11.20;94.30;;;;;;5035654;28;20842;-89
2021/04/15 10:51:34;;;;;;;5.40;2.40;;;11.00;74.50;;;;;;5036435;28;20455;-87
2021/04/15 10:54:06;;;;;;;3.63;2.80;;;10.30;98.00;;;;;;5036147;28;20455;-89
2021/04/15 10:56:45;;;;;;;2.80;2.53;;;9.50;97.80;;;;;;5035887;28;20487;-87
2021/04/15 10:59:36;;;;;;;3.03;2.70;;;9.30;98.10;;;;;;5032804;28;20501;-87
2021/04/15 11:02:22;;;;;;;4.70;3.10;;;9.50;82.60;;;;;;5036014;28;20545;-86
2021/04/15 11:04:50;;;;;;;5.00;3.27;;;9.50;82.50;;;;;;5028836;28;20482;-87
2021/04/15 11:07:19;;;;;;;5.10;3.53;;;9.60;82.50;;;;;;5046993;28;20955;-87
2021/04/15 11:09:48;;;;;;;2.57;2.37;;;9.90;81.20;;;;;;5050773;28;20447;-87
2021/04/15 11:12:22;;;;;;;2.80;2.50;;;9.70;80.10;;;;;;5051539;28;20453;-88
2021/04/15 11:15:22;;;;;;;4.57;2.70;;;9.20;98.00;;;;;;5055716;28;20456;-87
2021/04/15 11:17:50;;;;;;;4.37;3.47;;;10.40;77.90;;;;;;5056086;28;20505;-88
2021/04/15 11:20:30;;;;;;;4.17;3.47;;;10.80;96.80;;;;;;5046083;28;20541;-89
2021/04/15 11:23:00;;;;;;;4.90;3.23;;;10.00;73.50;;;;;;5044234;28;20450;-88
2021/04/15 11:25:30;;;;;;;7.80;3.53;;;9.80;74.90;;;;;;5055605;28;20494;-87
2021/04/15 11:27:58;;;;;;;5.13;3.30;;;11.80;70.90;;;;;;5055683;28;20505;-87
2021/04/15 11:30:46;;;;;;;4.03;3.37;;;12.70;77.20;;;;;;5054937;28;20451;-88
2021/04/15 11:33:30;;;;;;;4.33;3.07;;;12.10;64.40;;;;;;5047869;28;20816;-88
2021/04/15 11:36:05;;;;;;;5.03;3.67;;;11.50;67.50;;;;;;5054669;28;20462;-84
2021/04/15 11:38:31;;;;;;;4.13;3.23;;;11.90;99.10;;;;;;5053513;28;20462;-84
2021/04/15 11:40:58;;;;;;;3.77;3.07;;;;;;;;;;5054704;28;20454;-85
2021/04/15 11:43:29;;;;;;;3.27;2.97;;;10.60;73.50;;;;;;5054489;28;20455;-87
2021/04/15 11:46:15;;;;;;;4.70;2.70;;;10.40;99.90;;;;;;5054564;28;20589;-85
2021/04/15 11:48:42;;;;;;;4.00;2.77;;;;;;;;;;5053715;28;20451;-87
2021/04/15 11:51:19;;;;;;;2.90;2.47;;;9.30;89.60;;;;;;5054315;28;20941;-86
2021/04/15 11:53:49;;;;;;;7.33;2.50;;;9.60;78.30;;;;;;5054609;28;20438;-83
2021/04/15 11:56:33;;;;;;;3.57;2.80;;;10.80;76.10;;;;;;5054415;28;20446;-84
2021/04/15 11:59:23;;;;;;;2.87;2.43;;;12.10;73.10;;;;;;5054188;28;20461;-86
2021/04/15 12:01:52;;;;;;;2.27;2.07;;;12.90;69.80;;;;;;5054246;28;20446;-85
2021/04/15 12:04:25;;;;;;;3.20;2.97;;;12.50;86.40;;;;;;5050028;28;20539;-86
2021/04/15 12:06:59;;;;;;;4.93;3.13;;;12.80;68.30;;;;;;5051855;28;20904;-85
2021/04/15 12:09:33;;;;;;;3.87;3.07;;;12.40;65.90;;;;;;5050443;28;20474;-82
2021/04/15 12:12:09;;;;;;;4.07;2.80;;;12.30;68.40;;;;;;5053748;28;20466;-82
2021/04/15 12:14:37;;;;;;;4.43;3.10;;;12.30;69.30;;;;;;5054145;28;20446;-86
2021/04/15 12:17:11;;;;;;;2.90;2.13;;;12.60;65.20;;;;;;5055285;28;20465;-89
2021/04/15 12:19:48;;;;;;;2.97;2.40;;;11.30;63.10;;;;;;5054493;28;20449;-86
2021/04/15 12:22:21;;;;;;;3.10;2.63;;;11.30;63.90;;;;;;5052614;28;20936;-88
2021/04/15 12:24:53;;;;;;;2.90;2.60;;;10.40;64.10;;;;;;5055045;28;20467;-85
2021/04/15 12:27:22;;;;;;;3.50;2.57;;;11.60;64.40;;;;;;5055043;28;20521;-88
2021/04/15 12:29:58;;;;;;;2.63;1.90;;;12.40;63.30;;;;;;5055722;28;20473;-87
2021/04/15 12:32:34;;;;;;;2.90;2.53;;;13.40;63.60;;;;;;5051939;28;20453;-87
2021/04/15 12:35:10;;;;;;;4.53;2.40;;;13.40;61.70;;;;;;5054041;28;20536;-90
2021/04/15 12:37:42;;;;;;;2.50;2.27;;;12.60;63.10;;;;;;5051360;28;20450;-86
2021/04/15 12:40:18;;;;;;;2.77;2.53;;;11.60;72.60;;;;;;5053493;28;20552;-86
2021/04/15 12:42:47;;;;;;;2.77;2.10;;;11.60;64.90;;;;;;5056461;28;20941;-87
2021/04/15 12:45:22;;;;;;;1.90;1.80;;;12.40;64.90;;;;;;5049432;28;20496;-87
2021/04/15 12:47:50;;;;;;;3.70;2.10;;;12.40;64.40;;;;;;5055354;28;20782;-85
2021/04/15 12:50:17;;;;;;;2.30;2.10;;;;;;;;;;5051613;28;20976;-85
2021/04/15 12:52:43;;;;;;;2.57;2.37;;;;;;;;;;5021045;28;20486;-86
2021/04/15 12:55:15;;;;;;;3.17;2.57;;;11.30;67.40;;;;;;5034385;28;20466;-86
2021/04/15 12:57:42;;;;;;;4.03;2.90;;;12.60;68.50;;;;;;5034778;28;20451;-89
2021/04/15 13:00:11;;;;;;;2.70;2.50;;;13.50;66.60;;;;;;5033403;28;20451;-88
2021/04/15 13:02:39;;;;;;;5.70;2.47;;;14.00;62.70;;;;;;5033820;28;20521;-89
2021/04/15 13:05:11;;;;;;;2.63;2.43;;;13.20;59.60;;;;;;5028540;28;20998;-92
2021/04/15 13:07:40;;;;;;;3.63;2.37;;;12.20;59.50;;;;;;5030868;28;20994;-90
2021/04/15 13:10:30;;;;;;;3.47;2.70;;;10.80;61.90;;;;;;5034455;28;20447;-89
2021/04/15 13:12:59;;;;;;;3.53;2.73;;;10.00;67.50;;;;;;5034663;28;20459;-89
2021/04/15 13:15:42;;;;;;;2.77;2.57;;;10.50;71.40;;;;;;5034276;28;20450;-88
2021/04/15 13:18:41;;;;;;;3.80;2.50;;;10.00;69.30;;;;;;5016061;28;20803;-91
2021/04/15 13:21:23;;;;;;;2.67;2.47;;;10.80;68.40;;;;;;5011663;28;20460;-89
2021/04/15 13:23:50;;;;;;;4.13;2.90;;;;;;;;;;5009610;28;20440;-90
2021/04/15 13:26:25;;;;;;;2.67;2.30;;;10.60;69.40;;;;;;5012290;28;20538;-89
2021/04/15 13:29:12;;;;;;;4.33;2.80;;;10.20;72.70;;;;;;5011337;28;20821;-90
2021/04/15 13:31:43;;;;;;;3.40;2.80;;;9.50;72.90;;;;;;5015325;28;20955;-91
2021/04/15 13:34:12;;;;;;;4.43;3.23;;;8.90;75.40;;;;;;5021074;28;20447;-90
2021/04/15 13:36:41;;;;;;;2.37;2.17;;;9.10;81.20;;;;;;5014487;28;20441;-88
2021/04/15 13:39:28;;;;;;;5.27;3.03;;;8.80;87.60;;;;;;5010569;28;20451;-88
2021/04/15 13:42:08;;;;;;;8.60;2.73;;;8.40;90.80;;;;;;5015083;28;20462;-90
2021/04/15 13:44:54;;;;;;;3.13;2.77;;;8.10;99.90;;;;;;5013780;28;20934;-88